CheckWX is a tool to help pilots better visualize weather data.  It is not intended as a substitute for an official pre-flight weather briefing.

16:08:58 UTC

LGTL TAF
Kasteli Airport
Crete Island, Greece
TAF LGTL 181400Z 1815/1824 21008KT 9999 FEW020

Mar-18@
15:00 UTC

Mar-18 @ 15:00 UTC

Mar-19@
00:00 UTC

Mar-19 @ 00:00 UTC

TAF LGTL 181400Z 1815/1824 21008KT 9999 FEW020
Wind
  • 210° at 8 KTS
Cloud Levels
  • Few at 2,000' AGL